createdAt,value
2023-02-06T00:02:24.401Z,0.32
2023-02-06T00:05:02.152Z,0.36
2023-02-06T00:07:36.740Z,0.25
2023-02-06T00:10:04.800Z,0.29
2023-02-06T00:12:38.626Z,0.21
2023-02-06T00:15:12.982Z,0.32
2023-02-06T00:17:45.973Z,0.28
2023-02-06T00:20:20.922Z,0.00
2023-02-06T00:22:48.228Z,0.17
2023-02-06T00:25:23.427Z,0.14
2023-02-06T00:28:18.400Z,0.03
2023-02-06T00:31:12.765Z,0.03
2023-02-06T00:33:40.204Z,-0.05
2023-02-06T00:39:02.727Z,-0.09
2023-02-06T00:41:58.798Z,-0.04
2023-02-06T00:44:25.822Z,-0.11
2023-02-06T00:47:00.795Z,-0.13
2023-02-06T00:49:39.395Z,-0.13
2023-02-06T00:52:15.662Z,-0.15
2023-02-06T00:54:42.344Z,-0.16
2023-02-06T00:57:15.676Z,-0.11
2023-02-06T00:59:48.658Z,-0.12
2023-02-06T01:05:05.831Z,-0.24
2023-02-06T01:07:33.050Z,-0.25
2023-02-06T01:10:06.983Z,-0.16
2023-02-06T01:12:41.645Z,-0.12
2023-02-06T01:15:20.709Z,-0.11
2023-02-06T01:17:47.552Z,-0.22
2023-02-06T01:20:21.935Z,-0.26
2023-02-06T01:22:48.824Z,-0.14
2023-02-06T01:25:25.911Z,-0.12
2023-02-06T01:27:59.289Z,-0.18
2023-02-06T01:30:32.801Z,-0.17
2023-02-06T01:32:59.684Z,-0.19
2023-02-06T01:35:37.006Z,-0.24
2023-02-06T01:38:04.024Z,-0.36
2023-02-06T01:40:37.896Z,-0.39
2023-02-06T01:43:17.886Z,-0.31
2023-02-06T01:45:55.665Z,-0.37
2023-02-06T01:48:32.770Z,-0.39
2023-02-06T01:51:07.697Z,-0.30
2023-02-06T01:53:38.636Z,-0.40
2023-02-06T01:56:21.449Z,-0.41
2023-02-06T01:58:54.844Z,-0.60
2023-02-06T02:01:28.761Z,-0.47
2023-02-06T02:04:02.344Z,-0.57
2023-02-06T02:06:52.711Z,-0.58
2023-02-06T02:09:26.753Z,-0.53
2023-02-06T02:11:59.839Z,-0.50
2023-02-06T02:14:33.905Z,-0.51
2023-02-06T02:17:27.854Z,-0.56
2023-02-06T02:20:13.003Z,-0.58
2023-02-06T02:22:48.810Z,-0.59
2023-02-06T02:25:58.107Z,-0.62
2023-02-06T02:28:56.898Z,-0.64
2023-02-06T02:31:53.778Z,-0.61
2023-02-06T02:34:54.781Z,-0.59
2023-02-06T02:37:36.567Z,-0.57
2023-02-06T02:40:34.750Z,-0.49
2023-02-06T02:43:07.429Z,-0.44
2023-02-06T02:45:43.805Z,-0.37
2023-02-06T02:48:19.449Z,-0.29
2023-02-06T02:50:58.017Z,-0.25
2023-02-06T02:53:25.820Z,-0.19
2023-02-06T02:56:00.018Z,-0.16
2023-02-06T02:58:34.269Z,-0.09
2023-02-06T03:01:11.745Z,-0.04
2023-02-06T03:03:46.859Z,0.02
2023-02-06T03:06:48.761Z,0.06
2023-02-06T03:09:33.608Z,0.03
2023-02-06T03:12:19.716Z,0.15
2023-02-06T03:15:14.064Z,0.21
2023-02-06T03:18:01.912Z,0.20
2023-02-06T03:20:32.009Z,0.25
2023-02-06T03:23:07.993Z,0.31
2023-02-06T03:25:49.504Z,0.39
2023-02-06T03:28:30.770Z,0.43
2023-02-06T03:31:05.158Z,0.48
2023-02-06T03:33:44.837Z,0.51
2023-02-06T03:36:56.462Z,0.50
2023-02-06T03:39:29.689Z,0.49
2023-02-06T03:42:06.726Z,0.41
2023-02-06T03:44:46.740Z,0.49
2023-02-06T03:47:22.786Z,0.42
2023-02-06T03:49:57.727Z,0.39
2023-02-06T03:52:35.778Z,0.34
2023-02-06T03:55:12.916Z,0.31
2023-02-06T03:57:48.772Z,0.12
2023-02-06T04:00:22.856Z,0.18
2023-02-06T04:03:03.946Z,0.15
2023-02-06T04:05:37.850Z,0.14
2023-02-06T04:08:07.975Z,0.14
2023-02-06T04:10:35.061Z,0.15
2023-02-06T04:13:08.857Z,0.07
2023-02-06T04:15:38.951Z,0.15
2023-02-06T04:18:12.844Z,0.12
2023-02-06T04:20:41.105Z,-0.10
2023-02-06T04:23:16.676Z,0.03
2023-02-06T04:25:46.432Z,0.05
2023-02-06T04:28:26.739Z,0.04
2023-02-06T04:31:03.125Z,0.04
2023-02-06T04:33:37.010Z,0.04
2023-02-06T04:36:14.204Z,0.05
2023-02-06T04:38:47.822Z,0.03
2023-02-06T04:41:14.837Z,0.02
2023-02-06T04:43:47.829Z,-0.02
2023-02-06T04:46:41.627Z,-0.12
2023-02-06T04:49:47.800Z,-0.19
2023-02-06T04:52:20.769Z,-0.19
2023-02-06T04:54:47.672Z,-0.20
2023-02-06T04:57:14.336Z,-0.18
2023-02-06T04:59:47.823Z,-0.17
2023-02-06T05:02:40.047Z,-0.15
2023-02-06T05:05:08.600Z,-0.20
2023-02-06T05:07:42.823Z,-0.20
2023-02-06T05:10:10.357Z,-0.26
2023-02-06T05:12:43.799Z,-0.31
2023-02-06T05:15:11.103Z,-0.28
2023-02-06T05:17:44.882Z,-0.32
2023-02-06T05:20:12.260Z,-0.37
2023-02-06T05:22:45.826Z,-0.42
2023-02-06T05:25:31.057Z,-0.43
2023-02-06T05:28:06.940Z,-0.48
2023-02-06T05:30:40.782Z,-0.43
2023-02-06T05:33:10.445Z,-0.45
2023-02-06T05:35:46.732Z,-0.39
2023-02-06T05:38:16.602Z,-0.29
2023-02-06T05:40:49.823Z,-0.23
2023-02-06T05:43:16.751Z,-0.15
2023-02-06T05:45:49.883Z,-0.09
2023-02-06T05:48:23.941Z,-0.06
2023-02-06T05:53:44.594Z,0.06
2023-02-06T05:56:31.822Z,-0.09
2023-02-06T05:58:58.682Z,0.08
2023-02-06T06:01:35.844Z,0.11
2023-02-06T06:04:03.004Z,0.27
2023-02-06T06:06:46.829Z,0.17
2023-02-06T06:09:19.919Z,0.17
2023-02-06T06:14:39.872Z,0.23
2023-02-06T06:17:06.904Z,0.33
2023-02-06T06:19:39.799Z,0.34
2023-02-06T06:22:10.599Z,0.43
2023-02-06T06:24:43.808Z,0.49
2023-02-06T06:27:23.926Z,0.48
2023-02-06T06:30:03.809Z,0.53
2023-02-06T06:32:30.637Z,0.52
2023-02-06T06:35:03.953Z,0.54
2023-02-06T06:37:36.809Z,0.55
2023-02-06T06:40:10.927Z,0.52
2023-02-06T06:42:37.971Z,0.60
2023-02-06T06:45:11.834Z,0.56
2023-02-06T06:47:44.793Z,0.59
2023-02-06T06:50:11.916Z,0.57
2023-02-06T06:52:44.865Z,0.61
2023-02-06T06:55:11.671Z,0.63
2023-02-06T06:57:44.864Z,0.61
2023-02-06T07:00:12.734Z,0.63
2023-02-06T07:05:34.438Z,0.64
2023-02-06T07:08:07.824Z,0.68
2023-02-06T07:10:34.973Z,0.69
2023-02-06T07:13:07.882Z,0.74
2023-02-06T07:15:40.977Z,0.74
2023-02-06T07:18:07.765Z,0.77
2023-02-06T07:20:44.747Z,0.74
2023-02-06T07:23:11.592Z,0.73
2023-02-06T07:25:45.026Z,0.77
2023-02-06T07:28:17.985Z,0.77
2023-02-06T07:31:04.601Z,0.83
2023-02-06T07:33:31.472Z,0.81
2023-02-06T07:38:38.819Z,0.89
2023-02-06T07:41:12.814Z,0.91
2023-02-06T07:43:39.788Z,0.90
2023-02-06T07:48:59.372Z,0.92
2023-02-06T07:51:44.864Z,0.88
2023-02-06T07:54:12.576Z,0.92
2023-02-06T07:56:51.029Z,0.88
2023-02-06T07:59:25.555Z,0.83
2023-02-06T08:02:10.332Z,1.01
2023-02-06T08:04:51.773Z,1.04
2023-02-06T08:07:25.920Z,0.97
2023-02-06T08:09:59.035Z,1.06
2023-02-06T08:12:26.813Z,1.09
2023-02-06T08:14:59.952Z,1.13
2023-02-06T08:17:27.318Z,1.04
2023-02-06T08:19:54.429Z,1.26
2023-02-06T08:22:34.850Z,1.30
2023-02-06T08:25:01.774Z,1.35
2023-02-06T08:27:39.672Z,1.35
2023-02-06T08:30:21.396Z,1.29
2023-02-06T08:32:48.455Z,1.41
2023-02-06T08:35:25.329Z,1.52
2023-02-06T08:37:59.010Z,1.69
2023-02-06T08:40:34.847Z,1.79
2023-02-06T08:43:02.295Z,1.85
2023-02-06T08:45:29.190Z,1.94
2023-02-06T08:48:02.888Z,1.99
2023-02-06T08:50:29.870Z,2.02
2023-02-06T08:53:02.981Z,2.09
2023-02-06T08:55:33.315Z,2.18
2023-02-06T08:58:06.934Z,2.30
2023-02-06T09:00:36.864Z,2.38
2023-02-06T09:03:20.982Z,2.43
2023-02-06T09:08:45.911Z,2.60
2023-02-06T09:14:21.871Z,2.80
2023-02-06T09:17:00.652Z,2.89
2023-02-06T09:19:33.916Z,2.87
2023-02-06T09:22:00.690Z,3.07
2023-02-06T09:24:37.090Z,3.15
2023-02-06T09:27:35.966Z,3.25
2023-02-06T09:30:11.911Z,3.22
2023-02-06T09:32:44.901Z,3.26
2023-02-06T09:35:18.040Z,3.22
2023-02-06T09:37:51.864Z,3.20
2023-02-06T09:40:27.573Z,3.31
2023-02-06T09:43:08.931Z,3.34
2023-02-06T09:45:36.193Z,3.40
2023-02-06T09:48:38.940Z,3.44
2023-02-06T09:51:37.231Z,3.50
2023-02-06T09:54:15.952Z,3.51
2023-02-06T09:56:57.048Z,3.54
2023-02-06T09:59:35.872Z,3.56
2023-02-06T10:02:55.873Z,3.64
2023-02-06T10:05:51.675Z,3.83
2023-02-06T10:09:03.984Z,3.94
2023-02-06T10:14:51.004Z,4.52
2023-02-06T10:17:25.943Z,4.70
2023-02-06T10:20:09.007Z,4.94
2023-02-06T10:22:46.847Z,5.27
2023-02-06T10:25:36.177Z,5.46
2023-02-06T10:28:43.976Z,5.86
2023-02-06T10:31:32.174Z,6.20
2023-02-06T10:34:38.247Z,6.39
2023-02-06T10:37:25.973Z,6.36
2023-02-06T10:40:33.268Z,6.44
2023-02-06T10:43:23.046Z,6.28
2023-02-06T10:46:30.987Z,6.46
2023-02-06T10:49:12.587Z,6.38
2023-02-06T10:52:05.136Z,6.63
2023-02-06T10:54:47.305Z,6.80
2023-02-06T10:57:44.420Z,6.86
2023-02-06T11:00:50.087Z,6.90
2023-02-06T11:03:29.175Z,6.82
2023-02-06T11:05:59.666Z,6.74
2023-02-06T11:08:43.922Z,6.58
2023-02-06T11:11:37.577Z,6.52
2023-02-06T11:14:26.509Z,6.29
2023-02-06T11:16:53.864Z,6.36
2023-02-06T11:19:32.893Z,6.53
2023-02-06T11:22:12.032Z,6.63
2023-02-06T11:24:47.567Z,6.67
2023-02-06T11:27:27.126Z,6.73
2023-02-06T11:30:15.125Z,6.69
2023-02-06T11:33:03.682Z,6.84
2023-02-06T11:35:39.763Z,6.92
2023-02-06T11:38:29.951Z,7.10
2023-02-06T11:41:18.709Z,7.10
2023-02-06T11:43:56.897Z,7.15
2023-02-06T11:46:51.722Z,7.28
2023-02-06T11:50:00.939Z,7.34
2023-02-06T11:52:41.707Z,7.45
2023-02-06T11:55:48.907Z,7.39
2023-02-06T11:58:15.661Z,7.60
2023-02-06T12:01:29.073Z,7.74
2023-02-06T12:04:29.933Z,7.97
2023-02-06T12:07:33.921Z,8.07
2023-02-06T12:10:10.415Z,8.19
2023-02-06T12:12:42.475Z,8.33
2023-02-06T12:15:47.033Z,8.08
2023-02-06T12:18:19.467Z,8.11
2023-02-06T12:20:59.904Z,7.87
2023-02-06T12:23:40.087Z,8.03
2023-02-06T12:26:45.443Z,8.24
2023-02-06T12:29:37.958Z,8.40
2023-02-06T12:32:26.022Z,8.35
2023-02-06T12:35:00.740Z,8.20
2023-02-06T12:37:48.941Z,7.96
2023-02-06T12:40:58.001Z,7.63
2023-02-06T12:43:31.995Z,7.39
2023-02-06T12:46:58.982Z,7.22
2023-02-06T12:49:38.952Z,7.78
2023-02-06T12:52:17.023Z,8.51
2023-02-06T12:55:07.325Z,8.85
2023-02-06T12:57:35.912Z,8.93
2023-02-06T13:00:27.931Z,8.84
2023-02-06T13:03:22.949Z,8.61
2023-02-06T13:05:55.829Z,8.42
2023-02-06T13:08:45.927Z,8.16
2023-02-06T13:11:48.886Z,8.05
2023-02-06T13:14:30.970Z,8.03
2023-02-06T13:17:33.112Z,8.09
2023-02-06T13:20:12.062Z,8.08
2023-02-06T13:22:57.919Z,8.01
2023-02-06T13:25:55.752Z,8.03
2023-02-06T13:28:29.024Z,7.97
2023-02-06T13:31:13.538Z,7.89
2023-02-06T13:33:52.099Z,7.74
2023-02-06T13:36:33.988Z,7.79
2023-02-06T13:39:15.378Z,7.76
2023-02-06T13:44:33.545Z,7.77
2023-02-06T13:47:35.128Z,7.68
2023-02-06T13:50:28.466Z,7.91
2023-02-06T13:53:32.967Z,8.28
2023-02-06T13:56:37.802Z,9.10
2023-02-06T13:59:22.196Z,9.67
2023-02-06T14:01:49.550Z,10.02
2023-02-06T14:04:55.287Z,10.21
2023-02-06T14:07:37.194Z,10.50
2023-02-06T14:10:18.479Z,10.59
2023-02-06T14:13:08.338Z,10.93
2023-02-06T14:16:39.067Z,10.98
2023-02-06T14:19:05.924Z,10.82
2023-02-06T14:22:12.279Z,10.30
2023-02-06T14:25:32.491Z,9.75
2023-02-06T14:28:31.039Z,9.39
2023-02-06T14:31:40.130Z,9.18
2023-02-06T14:34:34.167Z,8.81
2023-02-06T14:37:25.112Z,8.27
2023-02-06T14:39:56.896Z,8.01
2023-02-06T14:42:44.048Z,7.89
2023-02-06T14:45:41.040Z,7.68
2023-02-06T14:49:00.102Z,7.48
2023-02-06T14:52:05.161Z,7.17
2023-02-06T14:54:45.198Z,7.04
2023-02-06T14:57:34.126Z,7.04
2023-02-06T15:00:27.096Z,6.97
2023-02-06T15:03:36.991Z,6.93
2023-02-06T15:08:50.609Z,6.85
2023-02-06T15:11:41.975Z,6.81
2023-02-06T15:14:24.928Z,6.75
2023-02-06T15:17:13.374Z,6.72
2023-02-06T15:19:40.030Z,6.56
2023-02-06T15:22:21.181Z,6.48
2023-02-06T15:25:38.530Z,6.46
2023-02-06T15:28:17.084Z,6.35
2023-02-06T15:30:57.300Z,6.34
2023-02-06T15:33:27.943Z,6.35
2023-02-06T15:36:03.064Z,6.32
2023-02-06T15:38:32.360Z,6.32
2023-02-06T15:41:13.044Z,6.29
2023-02-06T15:43:41.774Z,6.29
2023-02-06T15:46:15.247Z,6.32
2023-02-06T15:48:56.024Z,6.40
2023-02-06T15:51:52.177Z,6.47
2023-02-06T15:54:29.053Z,6.51
2023-02-06T15:57:28.483Z,6.58
2023-02-06T16:00:04.077Z,6.62
2023-02-06T16:02:38.257Z,6.62
2023-02-06T16:05:13.354Z,6.54
2023-02-06T16:07:47.171Z,6.52
2023-02-06T16:10:29.071Z,6.47
2023-02-06T16:13:00.220Z,6.37
2023-02-06T16:15:41.066Z,6.24
2023-02-06T16:18:31.582Z,6.09
2023-02-06T16:21:30.068Z,5.95
2023-02-06T16:24:03.407Z,5.77
2023-02-06T16:26:49.072Z,5.59
2023-02-06T16:29:42.130Z,5.39
2023-02-06T16:32:29.021Z,5.28
2023-02-06T16:34:56.458Z,5.12
2023-02-06T16:37:32.059Z,5.03
2023-02-06T16:39:58.839Z,4.83
2023-02-06T16:42:39.042Z,4.78
2023-02-06T16:45:23.631Z,10.29
2023-02-06T16:47:58.180Z,18.58
2023-02-06T16:50:25.021Z,24.52
2023-02-06T16:53:01.076Z,27.87
2023-02-06T16:55:28.967Z,30.01
2023-02-06T16:58:06.035Z,30.76
2023-02-06T17:00:40.108Z,31.37
2023-02-06T17:03:13.057Z,31.38
2023-02-06T17:05:48.112Z,30.47
2023-02-06T17:08:23.289Z,30.73
2023-02-06T17:10:56.985Z,31.04
2023-02-06T17:13:31.125Z,32.55
2023-02-06T17:15:58.032Z,33.50
2023-02-06T17:18:25.001Z,34.49
2023-02-06T17:21:00.264Z,34.66
2023-02-06T17:23:27.007Z,34.18
2023-02-06T17:26:00.148Z,33.80
2023-02-06T17:28:56.129Z,33.75
2023-02-06T17:31:38.112Z,34.71
2023-02-06T17:34:11.138Z,35.27
2023-02-06T17:36:46.095Z,34.89
2023-02-06T17:39:13.447Z,33.65
2023-02-06T17:42:06.091Z,32.68
2023-02-06T17:44:33.108Z,32.84
2023-02-06T17:47:06.239Z,32.90
2023-02-06T17:49:33.112Z,32.82
2023-02-06T17:51:59.812Z,32.27
2023-02-06T17:54:33.152Z,32.23
2023-02-06T17:57:06.130Z,32.29
2023-02-06T17:59:39.182Z,32.34
2023-02-06T18:02:06.278Z,32.24
2023-02-06T18:04:39.106Z,32.61
2023-02-06T18:07:07.545Z,32.69
2023-02-06T18:09:42.289Z,32.63
2023-02-06T18:12:09.992Z,32.78
2023-02-06T18:14:43.073Z,32.95
2023-02-06T18:17:20.674Z,32.87
2023-02-06T18:19:57.476Z,32.62
2023-02-06T18:22:27.184Z,32.27
2023-02-06T18:25:13.270Z,31.83
2023-02-06T18:27:49.475Z,31.56
2023-02-06T18:30:29.607Z,31.77
2023-02-06T18:32:56.707Z,31.41
2023-02-06T18:35:26.910Z,31.16
2023-02-06T18:38:02.278Z,31.04
2023-02-06T18:40:35.178Z,29.94
2023-02-06T18:43:09.287Z,30.36
2023-02-06T18:45:43.760Z,30.47
2023-02-06T18:48:21.290Z,30.01
2023-02-06T18:50:48.912Z,30.14
2023-02-06T18:53:22.412Z,30.28
2023-02-06T18:56:02.736Z,29.53
2023-02-06T18:58:36.186Z,29.64
2023-02-06T19:01:10.474Z,30.01
2023-02-06T19:04:03.464Z,28.89
2023-02-06T19:06:47.795Z,29.01
2023-02-06T19:09:22.372Z,29.15
2023-02-06T19:11:49.217Z,29.10
2023-02-06T19:14:24.108Z,29.33
2023-02-06T19:16:52.651Z,29.90
2023-02-06T19:19:26.334Z,30.12
2023-02-06T19:22:00.188Z,30.09
2023-02-06T19:24:35.225Z,29.59
2023-02-06T19:27:09.238Z,29.37
2023-02-06T19:29:49.255Z,29.82
2023-02-06T19:32:22.361Z,30.48
2023-02-06T19:34:49.105Z,30.63
2023-02-06T19:37:22.124Z,30.61
2023-02-06T19:39:48.965Z,30.79
2023-02-06T19:42:23.270Z,29.34
2023-02-06T19:44:54.933Z,29.41
2023-02-06T19:47:32.290Z,30.10
2023-02-06T19:49:59.171Z,30.37
2023-02-06T19:52:35.520Z,30.36
2023-02-06T19:55:02.590Z,30.09
2023-02-06T19:57:29.276Z,29.75
2023-02-06T20:00:02.163Z,29.80
2023-02-06T20:02:29.018Z,29.54
2023-02-06T20:05:02.798Z,29.18
2023-02-06T20:07:30.678Z,29.26
2023-02-06T20:10:04.279Z,29.47
2023-02-06T20:12:31.679Z,29.53
2023-02-06T20:15:16.486Z,29.81
2023-02-06T20:17:43.287Z,30.48
2023-02-06T20:20:40.817Z,31.10
2023-02-06T20:23:07.685Z,31.54
2023-02-06T20:25:50.278Z,31.38
2023-02-06T20:28:17.326Z,30.10
2023-02-06T20:33:38.885Z,29.76
2023-02-06T20:36:24.283Z,29.25
2023-02-06T20:39:03.387Z,29.69
2023-02-06T20:41:34.610Z,29.07
2023-02-06T20:44:08.630Z,28.56
2023-02-06T20:47:14.371Z,28.65
2023-02-06T20:50:00.245Z,29.26
2023-02-06T20:52:34.220Z,29.38
2023-02-06T20:55:01.782Z,29.20
2023-02-06T20:57:35.499Z,29.24
2023-02-06T21:00:12.297Z,29.20
2023-02-06T21:02:45.057Z,28.91
2023-02-06T21:05:48.648Z,28.77
2023-02-06T21:08:24.822Z,29.13
2023-02-06T21:10:59.243Z,28.50
2023-02-06T21:13:26.160Z,28.75
2023-02-06T21:16:01.226Z,29.21
2023-02-06T21:18:34.522Z,29.25
2023-02-06T21:21:32.759Z,28.44
2023-02-06T21:24:01.906Z,28.62
2023-02-06T21:26:36.234Z,28.49
2023-02-06T21:29:10.437Z,28.34
2023-02-06T21:32:03.853Z,28.42
2023-02-06T21:34:42.116Z,28.95
2023-02-06T21:37:15.186Z,29.13
2023-02-06T21:39:42.153Z,29.46
2023-02-06T21:42:17.138Z,29.28
2023-02-06T21:44:50.610Z,29.00
2023-02-06T21:47:24.396Z,29.20
2023-02-06T21:49:51.324Z,29.54
2023-02-06T21:52:24.416Z,29.87
2023-02-06T21:55:00.159Z,29.68
2023-02-06T21:57:27.089Z,29.62
2023-02-06T22:00:00.184Z,29.62
2023-02-06T22:02:44.979Z,29.62
2023-02-06T22:05:18.672Z,29.17
2023-02-06T22:07:48.268Z,29.11
2023-02-06T22:10:25.367Z,29.37
2023-02-06T22:13:05.380Z,28.93
2023-02-06T22:15:38.078Z,29.35
2023-02-06T22:18:12.206Z,29.99
2023-02-06T22:20:45.384Z,30.05
2023-02-06T22:23:19.186Z,29.84
2023-02-06T22:25:55.373Z,29.57
2023-02-06T22:28:22.211Z,29.44
2023-02-06T22:31:31.302Z,29.42
2023-02-06T22:34:06.205Z,29.09
2023-02-06T22:39:13.910Z,28.13
2023-02-06T22:41:55.447Z,27.50
2023-02-06T22:44:25.079Z,27.38
2023-02-06T22:47:00.552Z,27.08
2023-02-06T22:49:45.111Z,27.38
2023-02-06T22:52:40.228Z,27.21
2023-02-06T22:55:16.688Z,27.73
2023-02-06T22:57:43.321Z,26.59
2023-02-06T23:00:18.257Z,18.50
2023-02-06T23:02:50.515Z,12.17
2023-02-06T23:05:24.457Z,8.65
2023-02-06T23:07:51.720Z,6.52
2023-02-06T23:10:25.640Z,4.98
2023-02-06T23:12:52.508Z,4.10
2023-02-06T23:15:32.280Z,3.47
2023-02-06T23:17:58.960Z,2.81
2023-02-06T23:20:32.413Z,2.65
2023-02-06T23:22:59.085Z,2.22
2023-02-06T23:25:32.393Z,2.15
2023-02-06T23:28:05.309Z,1.99
2023-02-06T23:30:52.294Z,1.82
2023-02-06T23:33:26.191Z,1.71
2023-02-06T23:35:52.989Z,1.64
2023-02-06T23:38:26.218Z,1.53
2023-02-06T23:41:24.825Z,1.45
2023-02-06T23:44:00.349Z,1.32
2023-02-06T23:46:40.302Z,1.13
2023-02-06T23:49:39.530Z,1.08
2023-02-06T23:52:06.318Z,1.05
2023-02-06T23:54:39.327Z,1.05
2023-02-06T23:57:13.231Z,0.90
2023-02-06T23:59:46.375Z,1.07
